createdAt,value
2019-03-15T00:02:22.855Z,3.47
2019-03-15T00:04:50.294Z,3.42
2019-03-15T00:07:17.732Z,3.30
2019-03-15T00:09:45.180Z,2.80
2019-03-15T00:12:12.630Z,3.02
2019-03-15T00:14:40.072Z,3.20
2019-03-15T00:17:07.532Z,3.08
2019-03-15T00:19:34.956Z,3.65
2019-03-15T00:22:02.395Z,3.55
2019-03-15T00:24:29.869Z,3.25
2019-03-15T00:26:57.300Z,3.08
2019-03-15T00:29:24.749Z,3.10
2019-03-15T00:31:52.222Z,3.65
2019-03-15T00:34:19.878Z,2.70
2019-03-15T00:36:47.308Z,2.58
2019-03-15T00:39:14.740Z,3.15
2019-03-15T00:41:42.177Z,3.08
2019-03-15T00:44:09.621Z,3.12
2019-03-15T00:46:37.089Z,3.08
2019-03-15T00:49:04.516Z,3.33
2019-03-15T00:51:31.946Z,2.62
2019-03-15T00:53:59.415Z,4.10
2019-03-15T00:56:26.839Z,2.98
2019-03-15T00:58:54.276Z,3.08
2019-03-15T01:01:21.723Z,3.20
2019-03-15T01:03:49.408Z,3.37
2019-03-15T01:06:16.873Z,3.35
2019-03-15T01:08:44.308Z,3.20
2019-03-15T01:11:11.760Z,3.12
2019-03-15T01:13:39.200Z,3.33
2019-03-15T01:16:06.642Z,3.35
2019-03-15T01:18:34.076Z,2.83
2019-03-15T01:21:01.541Z,2.65
2019-03-15T01:23:28.951Z,2.62
2019-03-15T01:25:56.389Z,3.30
2019-03-15T01:28:23.836Z,3.42
2019-03-15T01:30:51.292Z,2.98
2019-03-15T01:33:18.913Z,3.10
2019-03-15T01:35:46.380Z,3.67
2019-03-15T01:38:13.836Z,4.00
2019-03-15T01:40:41.273Z,3.60
2019-03-15T01:43:08.771Z,3.70
2019-03-15T01:45:36.200Z,3.20
2019-03-15T01:48:03.633Z,3.90
2019-03-15T01:50:31.086Z,3.90
2019-03-15T01:52:58.617Z,3.87
2019-03-15T01:55:26.280Z,4.10
2019-03-15T01:57:53.750Z,5.10
2019-03-15T02:00:21.392Z,4.03
2019-03-15T02:02:48.846Z,3.92
2019-03-15T02:05:16.287Z,3.85
2019-03-15T02:07:43.763Z,5.25
2019-03-15T02:10:11.233Z,4.45
2019-03-15T02:12:38.640Z,4.62
2019-03-15T02:15:07.187Z,4.97
2019-03-15T02:17:34.633Z,4.75
2019-03-15T02:20:02.070Z,4.83
2019-03-15T02:22:29.524Z,4.17
2019-03-15T02:24:56.992Z,5.12
2019-03-15T02:27:24.425Z,3.90
2019-03-15T02:29:51.864Z,4.58
2019-03-15T02:32:19.357Z,4.62
2019-03-15T02:34:46.813Z,4.33
2019-03-15T02:37:14.242Z,4.72
2019-03-15T02:39:41.814Z,5.08
2019-03-15T02:42:09.256Z,4.05
2019-03-15T02:44:36.684Z,4.58
2019-03-15T02:47:04.168Z,4.40
2019-03-15T02:49:31.627Z,4.90
2019-03-15T02:51:59.052Z,4.53
2019-03-15T02:54:27.280Z,3.67
2019-03-15T02:56:54.847Z,4.35
2019-03-15T02:59:22.398Z,4.90
2019-03-15T03:01:49.847Z,4.28
2019-03-15T03:04:17.288Z,4.10
2019-03-15T03:06:44.714Z,4.12
2019-03-15T03:09:12.335Z,4.42
2019-03-15T03:11:39.757Z,3.67
2019-03-15T03:14:07.210Z,2.95
2019-03-15T03:16:34.661Z,3.27
2019-03-15T03:19:02.126Z,3.10
2019-03-15T03:21:29.553Z,3.70
2019-03-15T03:23:57.514Z,3.37
2019-03-15T03:26:25.178Z,3.62
2019-03-15T03:28:54.015Z,3.42
2019-03-15T03:31:21.557Z,2.83
2019-03-15T03:33:49.049Z,3.47
2019-03-15T03:36:16.473Z,3.25
2019-03-15T03:38:43.901Z,2.95
2019-03-15T03:41:11.366Z,3.02
2019-03-15T03:43:38.793Z,3.22
2019-03-15T03:46:06.227Z,3.30
2019-03-15T03:48:33.680Z,2.60
2019-03-15T03:51:01.113Z,3.85
2019-03-15T03:53:28.553Z,3.77
2019-03-15T03:55:55.980Z,3.72
2019-03-15T03:58:23.608Z,3.47
2019-03-15T04:00:51.078Z,2.95
2019-03-15T04:03:18.618Z,3.33
2019-03-15T04:05:46.061Z,3.55
2019-03-15T04:08:13.491Z,3.60
2019-03-15T04:10:40.932Z,3.47
2019-03-15T04:13:08.372Z,4.28
2019-03-15T04:15:36.129Z,4.50
2019-03-15T04:18:06.506Z,4.55
2019-03-15T04:20:32.797Z,3.45
2019-03-15T04:23:00.265Z,4.45
2019-03-15T04:25:27.687Z,4.25
2019-03-15T04:27:55.113Z,5.30
2019-03-15T04:30:23.361Z,6.37
2019-03-15T04:32:50.813Z,5.53
2019-03-15T04:35:18.293Z,5.12
2019-03-15T04:37:45.742Z,5.08
2019-03-15T04:40:13.167Z,5.30
2019-03-15T04:42:40.604Z,5.85
2019-03-15T04:45:08.055Z,5.95
2019-03-15T04:47:35.492Z,6.08
2019-03-15T04:50:03.405Z,5.85
2019-03-15T04:52:30.867Z,7.50
2019-03-15T04:54:58.309Z,9.00
2019-03-15T04:57:25.830Z,12.65
2019-03-15T04:59:53.295Z,10.75
2019-03-15T05:02:20.734Z,7.40
2019-03-15T05:04:48.264Z,9.13
2019-03-15T05:07:15.736Z,7.55
2019-03-15T05:09:43.173Z,7.78
2019-03-15T05:12:10.604Z,8.08
2019-03-15T05:14:38.051Z,7.58
2019-03-15T05:17:05.484Z,6.97
2019-03-15T05:19:32.951Z,7.15
2019-03-15T05:22:00.908Z,7.22
2019-03-15T05:24:28.455Z,7.25
2019-03-15T05:26:55.901Z,6.40
2019-03-15T05:29:23.347Z,6.42
2019-03-15T05:31:50.780Z,6.67
2019-03-15T05:34:18.209Z,7.40
2019-03-15T05:36:45.645Z,5.67
2019-03-15T05:39:13.098Z,6.05
2019-03-15T05:41:40.554Z,6.03
2019-03-15T05:44:07.993Z,5.62
2019-03-15T05:46:35.429Z,5.58
2019-03-15T05:49:02.892Z,5.20
2019-03-15T05:51:30.316Z,4.95
2019-03-15T05:53:57.715Z,5.85
2019-03-15T05:56:25.176Z,5.28
2019-03-15T05:58:52.604Z,4.58
2019-03-15T06:01:20.039Z,4.40
2019-03-15T06:03:49.095Z,4.78
2019-03-15T06:06:16.954Z,4.83
2019-03-15T06:08:44.432Z,4.17
2019-03-15T06:11:11.852Z,4.30
2019-03-15T06:13:39.292Z,4.75
2019-03-15T06:16:06.785Z,4.60
2019-03-15T06:18:34.387Z,4.50
2019-03-15T06:21:01.938Z,4.08
2019-03-15T06:23:29.340Z,4.28
2019-03-15T06:25:56.784Z,4.25
2019-03-15T06:28:24.216Z,3.85
2019-03-15T06:30:51.665Z,3.98
2019-03-15T06:33:19.269Z,3.45
2019-03-15T06:35:46.709Z,4.10
2019-03-15T06:38:14.156Z,4.03
2019-03-15T06:40:41.593Z,3.47
2019-03-15T06:43:09.037Z,4.42
2019-03-15T06:45:36.405Z,3.87
2019-03-15T06:48:03.818Z,3.42
2019-03-15T06:50:31.264Z,4.15
2019-03-15T06:52:58.680Z,3.90
2019-03-15T06:55:26.245Z,3.87
2019-03-15T06:57:53.709Z,5.47
2019-03-15T07:00:21.144Z,4.53
2019-03-15T07:02:48.582Z,4.42
2019-03-15T07:05:16.085Z,4.97
2019-03-15T07:07:43.646Z,4.70
2019-03-15T07:10:11.274Z,5.37
2019-03-15T07:12:40.161Z,4.35
2019-03-15T07:15:08.031Z,5.33
2019-03-15T07:17:35.549Z,5.62
2019-03-15T07:20:03.486Z,4.78
2019-03-15T07:22:30.977Z,4.45
2019-03-15T07:24:58.408Z,5.35
2019-03-15T07:27:25.856Z,4.90
2019-03-15T07:29:53.301Z,5.47
2019-03-15T07:32:20.756Z,5.80
2019-03-15T07:34:48.279Z,7.22
2019-03-15T07:37:15.737Z,5.62
2019-03-15T07:39:43.186Z,6.45
2019-03-15T07:42:10.628Z,5.12
2019-03-15T07:44:38.088Z,6.05
2019-03-15T07:47:05.539Z,6.67
2019-03-15T07:49:32.979Z,6.33
2019-03-15T07:52:00.412Z,5.45
2019-03-15T07:54:37.463Z,6.20
2019-03-15T07:56:57.198Z,5.55
2019-03-15T07:59:27.693Z,5.15
2019-03-15T08:01:54.024Z,5.05
2019-03-15T08:04:21.477Z,4.75
2019-03-15T08:06:49.063Z,5.83
2019-03-15T08:09:16.536Z,5.37
2019-03-15T08:11:43.985Z,5.08
2019-03-15T08:14:11.412Z,4.87
2019-03-15T08:16:38.976Z,5.17
2019-03-15T08:19:06.718Z,6.25
2019-03-15T08:21:34.161Z,5.90
2019-03-15T08:24:02.347Z,4.67
2019-03-15T08:26:30.523Z,5.58
2019-03-15T08:28:59.719Z,5.87
2019-03-15T08:31:29.946Z,6.42
2019-03-15T08:33:57.807Z,6.10
2019-03-15T08:36:25.373Z,6.75
2019-03-15T08:38:52.987Z,7.33
2019-03-15T08:41:20.520Z,6.72
2019-03-15T08:43:49.267Z,7.12
2019-03-15T08:46:18.393Z,7.45
2019-03-15T08:48:46.048Z,6.92
2019-03-15T08:51:15.566Z,6.90
2019-03-15T08:53:45.890Z,6.95
2019-03-15T08:56:15.779Z,7.30
2019-03-15T08:58:43.202Z,6.92
2019-03-15T09:01:11.097Z,7.55
2019-03-15T09:03:38.922Z,7.25
2019-03-15T09:06:06.640Z,6.92
2019-03-15T09:08:37.217Z,6.85
2019-03-15T09:11:03.962Z,6.08
2019-03-15T09:13:31.555Z,7.20
2019-03-15T09:15:59.242Z,6.45
2019-03-15T09:18:27.302Z,7.25
2019-03-15T09:20:54.728Z,6.55
2019-03-15T09:23:22.277Z,6.47
2019-03-15T09:25:49.731Z,5.90
2019-03-15T09:28:17.230Z,6.75
2019-03-15T09:30:44.688Z,6.12
2019-03-15T09:33:12.144Z,6.00
2019-03-15T09:35:39.588Z,4.80
2019-03-15T09:38:10.123Z,5.40
2019-03-15T09:40:36.301Z,5.92
2019-03-15T09:43:03.769Z,5.80
2019-03-15T09:45:31.213Z,5.85
2019-03-15T09:47:58.660Z,5.33
2019-03-15T09:50:34.196Z,5.78
2019-03-15T09:52:55.349Z,5.50
2019-03-15T09:55:32.351Z,6.12
2019-03-15T09:57:52.040Z,6.30
2019-03-15T10:00:19.462Z,6.53
2019-03-15T10:02:46.925Z,6.95
2019-03-15T10:05:14.343Z,6.60
2019-03-15T10:07:43.649Z,5.95
2019-03-15T10:10:14.008Z,6.50
2019-03-15T10:12:40.937Z,5.33
2019-03-15T10:15:09.580Z,4.67
2019-03-15T10:17:37.067Z,5.78
2019-03-15T10:20:05.748Z,4.45
2019-03-15T10:22:33.193Z,4.72
2019-03-15T10:25:00.632Z,4.60
2019-03-15T10:27:28.433Z,4.33
2019-03-15T10:29:55.883Z,5.40
2019-03-15T10:32:23.364Z,4.87
2019-03-15T10:34:50.821Z,3.83
2019-03-15T10:37:18.289Z,3.92
2019-03-15T10:39:45.876Z,4.42
2019-03-15T10:42:13.411Z,3.83
2019-03-15T10:44:40.854Z,3.08
2019-03-15T10:47:08.388Z,2.95
2019-03-15T10:49:36.293Z,2.72
2019-03-15T10:52:03.650Z,3.05
2019-03-15T10:54:31.106Z,3.30
2019-03-15T10:56:58.545Z,3.00
2019-03-15T10:59:25.984Z,2.67
2019-03-15T11:01:53.456Z,2.55
2019-03-15T11:04:20.884Z,2.90
2019-03-15T11:06:48.377Z,3.08
2019-03-15T11:09:15.826Z,2.67
2019-03-15T11:11:43.290Z,3.10
2019-03-15T11:14:10.736Z,2.22
2019-03-15T11:16:38.230Z,2.90
2019-03-15T11:19:05.779Z,2.52
2019-03-15T11:21:33.228Z,2.80
2019-03-15T11:24:00.709Z,2.42
2019-03-15T11:26:28.208Z,2.60
2019-03-15T11:28:55.652Z,3.17
2019-03-15T11:31:23.092Z,3.33
2019-03-15T11:33:50.540Z,3.52
2019-03-15T11:36:18.216Z,2.62
2019-03-15T11:38:45.571Z,3.22
2019-03-15T11:41:13.042Z,2.85
2019-03-15T11:43:40.485Z,2.80
2019-03-15T11:46:07.937Z,3.02
2019-03-15T11:48:35.402Z,2.22
2019-03-15T11:51:02.960Z,2.30
2019-03-15T11:53:30.409Z,3.52
2019-03-15T11:55:57.865Z,3.00
2019-03-15T11:58:25.320Z,3.15
2019-03-15T12:00:52.769Z,2.75
2019-03-15T12:03:20.220Z,2.60
2019-03-15T12:05:47.681Z,3.08
2019-03-15T12:08:15.149Z,2.77
2019-03-15T12:10:42.523Z,3.08
2019-03-15T12:13:09.961Z,2.58
2019-03-15T12:15:37.309Z,2.65
2019-03-15T12:18:08.055Z,2.80
2019-03-15T12:20:34.006Z,3.12
2019-03-15T12:23:01.437Z,3.17
2019-03-15T12:25:31.267Z,2.90
2019-03-15T12:27:58.143Z,2.60
2019-03-15T12:30:25.576Z,3.08
2019-03-15T12:32:53.024Z,3.70
2019-03-15T12:35:20.500Z,2.67
2019-03-15T12:37:47.961Z,3.12
2019-03-15T12:40:15.750Z,3.22
2019-03-15T12:42:43.209Z,2.92
2019-03-15T12:45:10.656Z,3.22
2019-03-15T12:47:38.088Z,2.55
2019-03-15T12:50:05.782Z,3.30
2019-03-15T12:52:45.899Z,3.75
2019-03-15T12:55:02.668Z,3.90
2019-03-15T12:57:30.105Z,3.65
2019-03-15T12:59:57.548Z,2.95
2019-03-15T13:02:25.006Z,3.30
2019-03-15T13:04:52.424Z,3.00
2019-03-15T13:07:19.851Z,3.37
2019-03-15T13:09:47.286Z,3.90
2019-03-15T13:12:14.746Z,3.25
2019-03-15T13:14:42.177Z,3.72
2019-03-15T13:17:09.742Z,2.95
2019-03-15T13:19:37.193Z,3.95
2019-03-15T13:22:04.636Z,3.47
2019-03-15T13:24:32.074Z,3.67
2019-03-15T13:27:07.399Z,3.55
2019-03-15T13:29:28.761Z,3.20
2019-03-15T13:31:56.198Z,3.10
2019-03-15T13:34:24.019Z,3.52
2019-03-15T13:36:51.477Z,3.50
2019-03-15T13:39:18.988Z,3.45
2019-03-15T13:41:46.424Z,3.50
2019-03-15T13:44:13.890Z,3.65
2019-03-15T13:46:41.320Z,3.30
2019-03-15T13:49:08.788Z,3.27
2019-03-15T13:51:36.233Z,4.28
2019-03-15T13:54:03.665Z,4.42
2019-03-15T13:56:31.112Z,3.22
2019-03-15T13:58:58.441Z,4.60
2019-03-15T14:01:25.860Z,3.87
2019-03-15T14:03:53.324Z,4.45
2019-03-15T14:06:20.764Z,3.80
2019-03-15T14:08:48.220Z,4.22
2019-03-15T14:11:15.692Z,4.78
2019-03-15T14:13:43.123Z,3.90
2019-03-15T14:16:10.552Z,4.00
2019-03-15T14:18:38.033Z,3.87
2019-03-15T14:21:05.460Z,3.77
2019-03-15T14:23:32.932Z,3.87
2019-03-15T14:26:00.388Z,3.80
2019-03-15T14:28:27.813Z,3.58
2019-03-15T14:30:56.196Z,3.92
2019-03-15T14:33:26.462Z,3.80
2019-03-15T14:35:59.183Z,4.15
2019-03-15T14:38:29.573Z,4.08
2019-03-15T14:41:21.115Z,4.50
2019-03-15T14:43:50.403Z,4.03
2019-03-15T14:46:23.469Z,4.17
2019-03-15T14:48:53.158Z,5.05
2019-03-15T14:51:21.739Z,3.77
2019-03-15T14:53:50.111Z,4.33
2019-03-15T14:56:17.576Z,4.10
2019-03-15T14:58:44.969Z,4.60
2019-03-15T15:01:12.416Z,4.62
2019-03-15T15:03:39.850Z,4.22
2019-03-15T15:06:07.280Z,4.35
2019-03-15T15:08:34.728Z,3.98
2019-03-15T15:11:02.427Z,4.45
2019-03-15T15:13:29.857Z,4.35
2019-03-15T15:15:57.292Z,4.00
2019-03-15T15:18:25.258Z,3.90
2019-03-15T15:20:52.701Z,4.42
2019-03-15T15:23:20.128Z,4.30
2019-03-15T15:25:47.652Z,4.10
2019-03-15T15:28:15.102Z,5.05
2019-03-15T15:30:42.537Z,3.92
2019-03-15T15:33:09.984Z,4.78
2019-03-15T15:35:37.428Z,3.50
2019-03-15T15:38:04.865Z,4.12
2019-03-15T15:40:32.317Z,4.00
2019-03-15T15:42:59.749Z,3.22
2019-03-15T15:45:29.742Z,4.00
2019-03-15T15:47:56.457Z,3.55
2019-03-15T15:50:23.898Z,4.17
2019-03-15T15:52:51.376Z,4.22
2019-03-15T15:55:18.804Z,4.33
2019-03-15T15:57:46.247Z,4.33
2019-03-15T16:00:13.821Z,3.35
2019-03-15T16:02:41.255Z,4.25
2019-03-15T16:05:08.912Z,3.52
2019-03-15T16:07:36.260Z,4.45
2019-03-15T16:10:03.941Z,4.03
2019-03-15T16:12:31.376Z,4.72
2019-03-15T16:14:58.844Z,4.10
2019-03-15T16:17:26.293Z,3.62
2019-03-15T16:19:53.824Z,3.72
2019-03-15T16:22:21.287Z,4.33
2019-03-15T16:24:48.777Z,3.72
2019-03-15T16:27:16.215Z,4.47
2019-03-15T16:29:43.517Z,4.37
2019-03-15T16:32:10.918Z,3.72
2019-03-15T16:34:38.215Z,5.03
2019-03-15T16:37:05.667Z,4.28
2019-03-15T16:39:33.105Z,4.65
2019-03-15T16:42:00.588Z,5.47
2019-03-15T16:44:28.022Z,4.20
2019-03-15T16:46:55.466Z,5.47
2019-03-15T16:49:22.916Z,4.05
2019-03-15T16:51:50.352Z,6.03
2019-03-15T16:54:17.976Z,4.80
2019-03-15T16:56:45.434Z,5.33
2019-03-15T16:59:12.860Z,4.95
2019-03-15T17:01:40.285Z,5.03
2019-03-15T17:04:07.758Z,5.12
2019-03-15T17:06:35.192Z,4.75
2019-03-15T17:09:02.636Z,8.63
2019-03-15T17:11:29.986Z,6.28
2019-03-15T17:13:57.424Z,5.55
2019-03-15T17:16:24.868Z,6.72
2019-03-15T17:18:52.326Z,5.85
2019-03-15T17:21:19.810Z,5.33
2019-03-15T17:23:47.252Z,5.00
2019-03-15T17:26:14.690Z,5.47
2019-03-15T17:28:42.129Z,5.08
2019-03-15T17:31:10.409Z,4.37
2019-03-15T17:33:38.044Z,5.35
2019-03-15T17:36:05.492Z,4.75
2019-03-15T17:38:32.948Z,5.60
2019-03-15T17:41:00.375Z,4.65
2019-03-15T17:43:27.828Z,4.80
2019-03-15T17:45:55.259Z,5.12
2019-03-15T17:48:22.684Z,5.53
2019-03-15T17:50:50.222Z,5.20
2019-03-15T17:53:17.684Z,6.37
2019-03-15T17:55:45.365Z,5.75
2019-03-15T17:58:13.176Z,5.62
2019-03-15T18:00:42.375Z,5.90
2019-03-15T18:03:20.643Z,5.92
2019-03-15T18:05:39.101Z,5.60
2019-03-15T18:08:06.639Z,5.62
2019-03-15T18:10:34.134Z,5.55
2019-03-15T18:13:01.618Z,4.72
2019-03-15T18:15:29.368Z,5.03
2019-03-15T18:17:59.856Z,5.05
2019-03-15T18:20:26.172Z,5.97
2019-03-15T18:22:53.621Z,4.60
2019-03-15T18:25:21.057Z,5.55
2019-03-15T18:27:49.006Z,6.03
2019-03-15T18:30:16.468Z,5.22
2019-03-15T18:32:43.897Z,5.90
2019-03-15T18:35:11.660Z,6.17
2019-03-15T18:37:39.148Z,6.15
2019-03-15T18:40:08.211Z,5.83
2019-03-15T18:42:35.708Z,6.28
2019-03-15T18:45:04.750Z,5.37
2019-03-15T18:47:32.182Z,6.05
2019-03-15T18:49:59.616Z,6.70
2019-03-15T18:52:27.056Z,5.67
2019-03-15T18:54:54.483Z,5.92
2019-03-15T18:57:21.914Z,6.17
2019-03-15T18:59:49.465Z,5.20
2019-03-15T19:02:17.194Z,6.58
2019-03-15T19:04:44.646Z,5.85
2019-03-15T19:07:12.077Z,5.50
2019-03-15T19:09:39.528Z,6.60
2019-03-15T19:12:06.978Z,5.53
2019-03-15T19:14:34.449Z,5.92
2019-03-15T19:17:01.938Z,6.35
2019-03-15T19:19:29.374Z,6.25
2019-03-15T19:21:56.808Z,6.75
2019-03-15T19:24:24.283Z,5.55
2019-03-15T19:26:51.716Z,6.40
2019-03-15T19:29:19.288Z,6.25
2019-03-15T19:31:46.747Z,5.30
2019-03-15T19:34:14.197Z,5.12
2019-03-15T19:36:41.640Z,5.67
2019-03-15T19:39:09.119Z,5.78
2019-03-15T19:41:36.540Z,4.92
2019-03-15T19:44:04.355Z,4.60
2019-03-15T19:46:31.828Z,5.05
2019-03-15T19:48:59.371Z,5.47
2019-03-15T19:51:26.770Z,5.55
2019-03-15T19:53:54.309Z,5.12
2019-03-15T19:56:21.741Z,5.55
2019-03-15T19:58:49.386Z,5.67
2019-03-15T20:01:16.844Z,6.53
2019-03-15T20:03:44.594Z,5.53
2019-03-15T20:06:12.285Z,6.05
2019-03-15T20:08:39.981Z,6.20
2019-03-15T20:11:07.481Z,6.08
2019-03-15T20:13:34.932Z,6.50
2019-03-15T20:16:02.418Z,7.00
2019-03-15T20:18:29.874Z,5.65
2019-03-15T20:20:57.331Z,6.72
2019-03-15T20:23:24.801Z,5.83
2019-03-15T20:25:52.248Z,6.55
2019-03-15T20:28:19.701Z,6.70
2019-03-15T20:30:52.232Z,6.40
2019-03-15T20:33:16.469Z,6.40
2019-03-15T20:35:43.918Z,5.60
2019-03-15T20:38:11.372Z,5.97
2019-03-15T20:40:38.832Z,6.78
2019-03-15T20:43:06.285Z,5.40
2019-03-15T20:45:33.570Z,6.53
2019-03-15T20:48:01.057Z,6.10
2019-03-15T20:50:28.620Z,6.17
2019-03-15T20:53:07.669Z,5.28
2019-03-15T20:55:28.520Z,5.62
2019-03-15T20:57:54.628Z,5.60
2019-03-15T21:00:34.856Z,6.72
2019-03-15T21:02:51.358Z,5.35
2019-03-15T21:05:19.040Z,4.60
2019-03-15T21:07:46.467Z,6.22
2019-03-15T21:10:15.080Z,5.87
2019-03-15T21:12:42.717Z,4.80
2019-03-15T21:15:10.832Z,6.70
2019-03-15T21:17:38.268Z,6.90
2019-03-15T21:20:07.213Z,6.17
2019-03-15T21:22:35.048Z,7.30
2019-03-15T21:25:03.116Z,7.08
2019-03-15T21:27:30.594Z,6.17
2019-03-15T21:29:58.055Z,5.97
2019-03-15T21:32:25.580Z,7.62
2019-03-15T21:34:53.017Z,5.75
2019-03-15T21:37:20.460Z,6.55
2019-03-15T21:39:48.011Z,6.17
2019-03-15T21:42:15.466Z,6.65
2019-03-15T21:44:42.892Z,3.37
2019-03-15T21:47:10.360Z,3.50
2019-03-15T21:49:37.792Z,2.05
2019-03-15T21:52:05.228Z,1.65
2019-03-15T21:54:32.584Z,1.90
2019-03-15T21:57:00.061Z,2.20
2019-03-15T21:59:27.508Z,2.92
2019-03-15T22:01:54.958Z,2.62
2019-03-15T22:04:22.369Z,3.20
2019-03-15T22:06:49.803Z,2.92
2019-03-15T22:09:17.268Z,2.85
2019-03-15T22:11:44.753Z,1.92
2019-03-15T22:14:12.179Z,2.58
2019-03-15T22:16:39.640Z,2.60
2019-03-15T22:19:07.088Z,2.27
2019-03-15T22:21:34.509Z,2.15
2019-03-15T22:24:01.852Z,2.58
2019-03-15T22:26:29.315Z,2.17
2019-03-15T22:28:56.744Z,2.35
2019-03-15T22:31:24.192Z,2.33
2019-03-15T22:33:51.622Z,2.33
2019-03-15T22:36:20.547Z,2.45
2019-03-15T22:38:47.987Z,2.67
2019-03-15T22:41:15.439Z,2.58
2019-03-15T22:43:42.867Z,2.65
2019-03-15T22:46:10.288Z,1.98
2019-03-15T22:48:37.724Z,2.75
2019-03-15T22:51:05.185Z,2.42
2019-03-15T22:53:32.737Z,2.95
2019-03-15T22:56:00.168Z,2.65
2019-03-15T22:58:27.657Z,2.50
2019-03-15T23:00:55.184Z,2.80
2019-03-15T23:03:22.636Z,2.30
2019-03-15T23:05:50.078Z,2.37
2019-03-15T23:08:17.682Z,2.85
2019-03-15T23:10:47.144Z,2.90
2019-03-15T23:13:14.377Z,2.40
2019-03-15T23:15:41.806Z,2.87
2019-03-15T23:18:09.548Z,2.47
2019-03-15T23:20:36.980Z,3.52
2019-03-15T23:23:04.420Z,2.77
2019-03-15T23:25:32.027Z,2.33
2019-03-15T23:27:59.528Z,2.30
2019-03-15T23:30:26.964Z,2.15
2019-03-15T23:32:54.421Z,1.98
2019-03-15T23:35:21.865Z,1.90
2019-03-15T23:37:49.355Z,2.08
2019-03-15T23:40:16.909Z,2.08
2019-03-15T23:42:44.366Z,2.47
2019-03-15T23:45:11.798Z,2.40
2019-03-15T23:47:39.250Z,2.45
2019-03-15T23:50:07.065Z,2.40
2019-03-15T23:52:34.489Z,2.35
2019-03-15T23:55:01.933Z,2.22
2019-03-15T23:57:29.381Z,2.75
2019-03-15T23:59:56.833Z,2.70
